Terminal Aerodrome Forecast
Issued by NWS Nashville, TN

Home | Current Version | Previous Version | Text Only | Print | Product List | Glossary On
Versions: 1 2 3 4 5 6 7 8 9 10 11 12 13 14
000
FTUS44 KOHX 051134
TAFCSV
TAF
KCSV 051134Z 0512/0612 20003KT P6SM SCT150
     FM051700 29005KT 6SM -TSRA BR BKN040CB OVC100
     FM052200 07003KT P6SM VCSH OVC040
     FM060300 12002KT 6SM -SHRA BR VCTS OVC035CB=

USA.gov is the U.S. government's official web portal to all federal, state and local government web resources and services.